sensor_id;sensor_type;location;lat;lon;timestamp;pressure;altitude;pressure_sealevel;temperature;humidity
75701;BME280;64321;48.796;44.740;2024-03-25T00:00:28;101117.06;;;6.36;100.00
75701;BME280;64321;48.796;44.740;2024-03-25T00:05:30;101111.06;;;6.34;100.00
75701;BME280;64321;48.796;44.740;2024-03-25T00:10:33;101109.28;;;6.34;100.00
75701;BME280;64321;48.796;44.740;2024-03-25T00:15:35;101117.06;;;6.20;100.00
75701;BME280;64321;48.796;44.740;2024-03-25T00:20:38;101122.16;;;6.07;100.00
75701;BME280;64321;48.796;44.740;2024-03-25T00:25:40;101127.13;;;5.96;100.00
75701;BME280;64321;48.796;44.740;2024-03-25T00:30:41;101117.19;;;5.85;100.00
75701;BME280;64321;48.796;44.740;2024-03-25T00:35:43;101120.06;;;5.81;100.00
75701;BME280;64321;48.796;44.740;2024-03-25T00:40:46;101124.69;;;5.76;100.00
75701;BME280;64321;48.796;44.740;2024-03-25T00:45:48;101126.56;;;5.74;100.00
75701;BME280;64321;48.796;44.740;2024-03-25T00:50:49;101134.47;;;5.56;100.00
75701;BME280;64321;48.796;44.740;2024-03-25T00:55:51;101126.09;;;5.50;100.00
75701;BME280;64321;48.796;44.740;2024-03-25T01:00:52;101132.34;;;5.47;100.00
75701;BME280;64321;48.796;44.740;2024-03-25T01:05:54;101110.88;;;5.56;100.00
75701;BME280;64321;48.796;44.740;2024-03-25T01:10:55;101110.88;;;5.56;100.00
75701;BME280;64321;48.796;44.740;2024-03-25T01:15:57;101103.78;;;5.58;100.00
75701;BME280;64321;48.796;44.740;2024-03-25T01:20:58;101105.16;;;5.66;100.00
75701;BME280;64321;48.796;44.740;2024-03-25T01:26:00;101094.06;;;5.61;100.00
75701;BME280;64321;48.796;44.740;2024-03-25T01:31:01;101087.06;;;5.61;100.00
75701;BME280;64321;48.796;44.740;2024-03-25T01:36:03;101088.34;;;5.54;100.00
75701;BME280;64321;48.796;44.740;2024-03-25T01:41:11;101076.25;;;5.51;100.00
75701;BME280;64321;48.796;44.740;2024-03-25T01:46:12;101075.03;;;5.41;100.00
75701;BME280;64321;48.796;44.740;2024-03-25T01:51:14;101069.72;;;5.10;100.00
75701;BME280;64321;48.796;44.740;2024-03-25T01:56:18;101077.88;;;4.86;100.00
75701;BME280;64321;48.796;44.740;2024-03-25T02:01:21;101081.59;;;4.82;100.00
75701;BME280;64321;48.796;44.740;2024-03-25T02:06:26;101091.56;;;4.57;100.00
75701;BME280;64321;48.796;44.740;2024-03-25T02:11:29;101093.41;;;4.55;100.00
75701;BME280;64321;48.796;44.740;2024-03-25T02:16:31;101102.31;;;4.51;100.00
75701;BME280;64321;48.796;44.740;2024-03-25T02:21:32;101104.28;;;4.65;100.00
75701;BME280;64321;48.796;44.740;2024-03-25T02:26:33;101101.03;;;4.60;100.00
75701;BME280;64321;48.796;44.740;2024-03-25T02:31:35;101099.72;;;4.68;100.00
75701;BME280;64321;48.796;44.740;2024-03-25T02:36:36;101108.06;;;4.76;100.00
75701;BME280;64321;48.796;44.740;2024-03-25T02:41:38;101095.13;;;4.91;100.00
75701;BME280;64321;48.796;44.740;2024-03-25T02:46:40;101095.44;;;4.84;100.00
75701;BME280;64321;48.796;44.740;2024-03-25T02:51:42;101111.81;;;4.88;100.00
75701;BME280;64321;48.796;44.740;2024-03-25T02:56:44;101113.59;;;5.05;100.00
75701;BME280;64321;48.796;44.740;2024-03-25T03:01:45;101118.50;;;5.28;100.00
75701;BME280;64321;48.796;44.740;2024-03-25T03:06:46;101108.22;;;5.41;100.00
75701;BME280;64321;48.796;44.740;2024-03-25T03:11:48;101106.44;;;5.41;100.00
75701;BME280;64321;48.796;44.740;2024-03-25T03:16:49;101100.81;;;5.16;100.00
75701;BME280;64321;48.796;44.740;2024-03-25T03:21:50;101092.88;;;5.17;100.00
75701;BME280;64321;48.796;44.740;2024-03-25T03:26:51;101083.03;;;5.05;100.00
75701;BME280;64321;48.796;44.740;2024-03-25T03:31:53;101080.06;;;4.78;100.00
75701;BME280;64321;48.796;44.740;2024-03-25T03:36:54;101083.88;;;4.88;100.00
75701;BME280;64321;48.796;44.740;2024-03-25T03:41:55;101087.25;;;5.08;100.00
75701;BME280;64321;48.796;44.740;2024-03-25T03:46:57;101096.72;;;5.10;100.00
75701;BME280;64321;48.796;44.740;2024-03-25T03:51:58;101095.13;;;4.91;100.00
75701;BME280;64321;48.796;44.740;2024-03-25T03:57:00;101104.22;;;5.01;100.00
75701;BME280;64321;48.796;44.740;2024-03-25T04:02:01;101106.06;;;5.16;100.00
75701;BME280;64321;48.796;44.740;2024-03-25T04:07:02;101116.47;;;5.00;100.00
75701;BME280;64321;48.796;44.740;2024-03-25T04:12:04;101114.22;;;5.10;100.00
75701;BME280;64321;48.796;44.740;2024-03-25T04:17:06;101112.97;;;5.17;100.00
75701;BME280;64321;48.796;44.740;2024-03-25T04:22:08;101118.97;;;5.36;100.00
75701;BME280;64321;48.796;44.740;2024-03-25T04:27:10;101130.44;;;5.34;100.00
75701;BME280;64321;48.796;44.740;2024-03-25T04:32:11;101132.94;;;5.52;100.00
75701;BME280;64321;48.796;44.740;2024-03-25T04:37:12;101117.88;;;5.56;100.00
75701;BME280;64321;48.796;44.740;2024-03-25T04:42:14;101119.03;;;5.68;100.00
75701;BME280;64321;48.796;44.740;2024-03-25T04:47:15;101129.84;;;5.77;100.00
75701;BME280;64321;48.796;44.740;2024-03-25T04:52:16;101132.09;;;5.85;100.00
75701;BME280;64321;48.796;44.740;2024-03-25T04:57:18;101133.56;;;6.06;100.00
75701;BME280;64321;48.796;44.740;2024-03-25T05:02:20;101143.47;;;6.17;100.00
75701;BME280;64321;48.796;44.740;2024-03-25T05:07:21;101150.94;;;6.24;100.00
75701;BME280;64321;48.796;44.740;2024-03-25T05:12:22;101149.88;;;6.27;100.00
75701;BME280;64321;48.796;44.740;2024-03-25T05:17:24;101166.66;;;6.24;100.00
75701;BME280;64321;48.796;44.740;2024-03-25T05:22:25;101163.75;;;6.29;100.00
75701;BME280;64321;48.796;44.740;2024-03-25T05:27:26;101156.16;;;6.24;100.00
75701;BME280;64321;48.796;44.740;2024-03-25T05:32:28;101157.69;;;6.44;100.00
75701;BME280;64321;48.796;44.740;2024-03-25T05:37:29;101162.63;;;6.80;100.00
75701;BME280;64321;48.796;44.740;2024-03-25T05:42:33;101172.47;;;7.07;100.00
75701;BME280;64321;48.796;44.740;2024-03-25T05:47:35;101170.91;;;7.18;100.00
75701;BME280;64321;48.796;44.740;2024-03-25T05:52:36;101174.94;;;7.24;100.00
75701;BME280;64321;48.796;44.740;2024-03-25T05:57:37;101178.53;;;7.37;100.00
75701;BME280;64321;48.796;44.740;2024-03-25T06:02:39;101163.94;;;7.61;100.00
75701;BME280;64321;48.796;44.740;2024-03-25T06:07:40;101166.13;;;7.69;100.00
75701;BME280;64321;48.796;44.740;2024-03-25T06:12:41;101168.34;;;7.89;100.00
75701;BME280;64321;48.796;44.740;2024-03-25T06:17:43;101169.38;;;8.15;100.00
75701;BME280;64321;48.796;44.740;2024-03-25T06:22:44;101175.44;;;8.30;100.00
75701;BME280;64321;48.796;44.740;2024-03-25T06:27:45;101180.25;;;8.38;100.00
75701;BME280;64321;48.796;44.740;2024-03-25T06:32:48;101173.09;;;8.25;100.00
75701;BME280;64321;48.796;44.740;2024-03-25T06:38:08;101174.03;;;8.24;100.00
75701;BME280;64321;48.796;44.740;2024-03-25T06:43:09;101172.28;;;8.39;100.00
75701;BME280;64321;48.796;44.740;2024-03-25T06:48:10;101172.25;;;8.25;100.00
75701;BME280;64321;48.796;44.740;2024-03-25T06:53:12;101173.41;;;8.21;100.00
75701;BME280;64321;48.796;44.740;2024-03-25T06:58:14;101173.69;;;8.16;100.00
75701;BME280;64321;48.796;44.740;2024-03-25T07:03:20;101152.25;;;8.37;100.00
75701;BME280;64321;48.796;44.740;2024-03-25T07:08:22;101148.16;;;8.59;100.00
75701;BME280;64321;48.796;44.740;2024-03-25T07:13:24;101138.34;;;8.61;100.00
75701;BME280;64321;48.796;44.740;2024-03-25T07:18:26;101134.66;;;8.64;100.00
75701;BME280;64321;48.796;44.740;2024-03-25T07:23:28;101136.84;;;8.84;100.00
75701;BME280;64321;48.796;44.740;2024-03-25T07:28:29;101137.78;;;8.83;100.00
75701;BME280;64321;48.796;44.740;2024-03-25T07:33:30;101124.13;;;9.03;100.00
75701;BME280;64321;48.796;44.740;2024-03-25T07:38:32;101098.78;;;9.28;100.00
75701;BME280;64321;48.796;44.740;2024-03-25T07:43:33;101105.63;;;9.43;100.00
75701;BME280;64321;48.796;44.740;2024-03-25T07:48:34;101099.34;;;9.69;100.00
75701;BME280;64321;48.796;44.740;2024-03-25T07:53:36;101097.94;;;10.02;99.03
75701;BME280;64321;48.796;44.740;2024-03-25T07:58:38;101102.19;;;10.28;92.63
75701;BME280;64321;48.796;44.740;2024-03-25T08:03:39;101090.28;;;10.47;88.83
75701;BME280;64321;48.796;44.740;2024-03-25T08:08:41;101089.03;;;10.63;88.57
75701;BME280;64321;48.796;44.740;2024-03-25T08:13:42;101078.44;;;10.87;87.75
75701;BME280;64321;48.796;44.740;2024-03-25T08:18:44;101088.25;;;11.09;84.80
75701;BME280;64321;48.796;44.740;2024-03-25T08:23:45;101078.56;;;11.43;81.40
75701;BME280;64321;48.796;44.740;2024-03-25T08:28:47;101077.31;;;11.47;80.39
75701;BME280;64321;48.796;44.740;2024-03-25T08:33:50;101076.84;;;11.53;80.62
75701;BME280;64321;48.796;44.740;2024-03-25T08:38:51;101061.00;;;11.98;78.82
75701;BME280;64321;48.796;44.740;2024-03-25T08:43:52;101051.06;;;12.75;73.36
75701;BME280;64321;48.796;44.740;2024-03-25T08:48:54;101043.66;;;12.69;70.64
75701;BME280;64321;48.796;44.740;2024-03-25T08:53:55;101040.47;;;12.75;70.29
75701;BME280;64321;48.796;44.740;2024-03-25T08:58:56;101025.84;;;13.01;68.00
75701;BME280;64321;48.796;44.740;2024-03-25T09:03:58;101023.50;;;13.29;66.04
75701;BME280;64321;48.796;44.740;2024-03-25T09:09:00;101009.72;;;13.35;65.06
75701;BME280;64321;48.796;44.740;2024-03-25T09:14:20;101004.69;;;13.81;61.28
75701;BME280;64321;48.796;44.740;2024-03-25T09:19:21;100999.03;;;14.15;59.82
75701;BME280;64321;48.796;44.740;2024-03-25T09:24:23;100984.75;;;14.25;58.72
75701;BME280;64321;48.796;44.740;2024-03-25T09:29:24;100973.75;;;14.96;55.29
75701;BME280;64321;48.796;44.740;2024-03-25T09:34:26;100978.16;;;14.78;56.67
75701;BME280;64321;48.796;44.740;2024-03-25T09:39:27;100975.22;;;15.18;56.59
75701;BME280;64321;48.796;44.740;2024-03-25T09:44:30;100963.56;;;15.28;53.95
75701;BME280;64321;48.796;44.740;2024-03-25T09:49:32;100971.03;;;15.43;53.21
75701;BME280;64321;48.796;44.740;2024-03-25T09:54:35;100958.00;;;14.85;54.62
75701;BME280;64321;48.796;44.740;2024-03-25T09:59:36;100949.78;;;14.69;54.64
75701;BME280;64321;48.796;44.740;2024-03-25T10:04:44;100939.56;;;14.54;54.17
75701;BME280;64321;48.796;44.740;2024-03-25T10:09:46;100926.13;;;14.66;54.11
75701;BME280;64321;48.796;44.740;2024-03-25T10:14:47;100912.34;;;14.43;54.66
75701;BME280;64321;48.796;44.740;2024-03-25T10:19:49;100919.72;;;13.62;57.83
75701;BME280;64321;48.796;44.740;2024-03-25T10:24:50;100909.97;;;14.11;56.75
75701;BME280;64321;48.796;44.740;2024-03-25T10:29:53;100907.44;;;13.71;57.42
75701;BME280;64321;48.796;44.740;2024-03-25T10:34:56;100913.72;;;13.99;56.98
75701;BME280;64321;48.796;44.740;2024-03-25T10:40:00;100902.41;;;14.25;56.99
75701;BME280;64321;48.796;44.740;2024-03-25T10:45:05;100894.59;;;14.14;56.17
75701;BME280;64321;48.796;44.740;2024-03-25T10:50:11;100890.75;;;14.36;54.99
75701;BME280;64321;48.796;44.740;2024-03-25T10:55:15;100881.31;;;14.71;52.53
75701;BME280;64321;48.796;44.740;2024-03-25T11:00:19;100876.06;;;14.51;53.90
75701;BME280;64321;48.796;44.740;2024-03-25T11:05:21;100867.03;;;14.81;53.03
75701;BME280;64321;48.796;44.740;2024-03-25T11:10:29;100860.19;;;15.06;53.94
75701;BME280;64321;48.796;44.740;2024-03-25T11:15:36;100850.91;;;15.10;52.66
75701;BME280;64321;48.796;44.740;2024-03-25T11:20:39;100855.38;;;15.19;52.24
75701;BME280;64321;48.796;44.740;2024-03-25T11:25:41;100854.88;;;15.51;51.60
75701;BME280;64321;48.796;44.740;2024-03-25T11:30:43;100852.19;;;15.34;50.93
75701;BME280;64321;48.796;44.740;2024-03-25T11:35:46;100867.78;;;15.46;50.79
75701;BME280;64321;48.796;44.740;2024-03-25T11:40:47;100863.38;;;15.10;52.21
75701;BME280;64321;48.796;44.740;2024-03-25T11:45:49;100863.13;;;14.76;52.13
75701;BME280;64321;48.796;44.740;2024-03-25T11:50:51;100865.09;;;14.74;53.07
75701;BME280;64321;48.796;44.740;2024-03-25T11:55:52;100873.97;;;14.65;53.39
75701;BME280;64321;48.796;44.740;2024-03-25T12:00:54;100870.03;;;14.69;53.39
75701;BME280;64321;48.796;44.740;2024-03-25T12:05:57;100865.78;;;14.29;54.00
75701;BME280;64321;48.796;44.740;2024-03-25T12:11:00;100870.19;;;14.57;53.96
75701;BME280;64321;48.796;44.740;2024-03-25T12:16:19;100862.06;;;14.69;54.14
75701;BME280;64321;48.796;44.740;2024-03-25T12:21:21;100864.81;;;14.77;50.56
75701;BME280;64321;48.796;44.740;2024-03-25T12:26:22;100861.44;;;14.75;48.83
75701;BME280;64321;48.796;44.740;2024-03-25T12:31:24;100860.66;;;14.65;48.43
75701;BME280;64321;48.796;44.740;2024-03-25T12:36:26;100855.63;;;14.62;49.38
75701;BME280;64321;48.796;44.740;2024-03-25T12:41:29;100859.22;;;14.70;50.07
75701;BME280;64321;48.796;44.740;2024-03-25T12:46:30;100862.97;;;14.50;51.01
75701;BME280;64321;48.796;44.740;2024-03-25T12:51:31;100855.28;;;14.28;50.89
75701;BME280;64321;48.796;44.740;2024-03-25T12:56:33;100847.63;;;14.15;51.28
75701;BME280;64321;48.796;44.740;2024-03-25T13:01:34;100844.56;;;14.10;52.52
75701;BME280;64321;48.796;44.740;2024-03-25T13:06:36;100848.19;;;14.09;52.97
75701;BME280;64321;48.796;44.740;2024-03-25T13:11:37;100847.06;;;14.02;53.04
75701;BME280;64321;48.796;44.740;2024-03-25T13:16:39;100840.06;;;14.01;53.75
75701;BME280;64321;48.796;44.740;2024-03-25T13:21:41;100838.00;;;13.95;54.47
75701;BME280;64321;48.796;44.740;2024-03-25T13:26:43;100829.09;;;13.76;55.86
75701;BME280;64321;48.796;44.740;2024-03-25T13:31:44;100823.63;;;13.68;56.91
75701;BME280;64321;48.796;44.740;2024-03-25T13:36:46;100824.03;;;13.44;59.15
75701;BME280;64321;48.796;44.740;2024-03-25T13:41:47;100817.88;;;13.34;60.00
75701;BME280;64321;48.796;44.740;2024-03-25T13:46:49;100819.41;;;13.27;61.07
75701;BME280;64321;48.796;44.740;2024-03-25T13:51:56;100822.41;;;13.13;62.99
75701;BME280;64321;48.796;44.740;2024-03-25T13:56:59;100822.69;;;13.00;64.04
75701;BME280;64321;48.796;44.740;2024-03-25T14:02:01;100819.44;;;12.87;66.70
75701;BME280;64321;48.796;44.740;2024-03-25T14:07:02;100818.03;;;12.83;67.34
75701;BME280;64321;48.796;44.740;2024-03-25T14:12:04;100825.06;;;12.63;69.74
75701;BME280;64321;48.796;44.740;2024-03-25T14:17:05;100829.63;;;12.51;70.93
75701;BME280;64321;48.796;44.740;2024-03-25T14:22:07;100831.13;;;12.44;72.22
75701;BME280;64321;48.796;44.740;2024-03-25T14:27:08;100831.47;;;12.30;74.67
75701;BME280;64321;48.796;44.740;2024-03-25T14:32:10;100826.75;;;12.13;75.70
75701;BME280;64321;48.796;44.740;2024-03-25T14:37:11;100834.47;;;12.16;76.43
75701;BME280;64321;48.796;44.740;2024-03-25T14:42:13;100835.41;;;12.15;77.20
75701;BME280;64321;48.796;44.740;2024-03-25T14:47:14;100832.06;;;12.13;77.24
75701;BME280;64321;48.796;44.740;2024-03-25T14:52:15;100835.22;;;12.07;76.56
75701;BME280;64321;48.796;44.740;2024-03-25T14:57:17;100843.66;;;12.01;77.67
75701;BME280;64321;48.796;44.740;2024-03-25T15:02:19;100838.66;;;11.98;78.13
75701;BME280;64321;48.796;44.740;2024-03-25T15:07:20;100841.69;;;11.93;77.98
75701;BME280;64321;48.796;44.740;2024-03-25T15:12:22;100841.94;;;11.90;77.80
75701;BME280;64321;48.796;44.740;2024-03-25T15:17:25;100833.22;;;11.78;78.04
75701;BME280;64321;48.796;44.740;2024-03-25T15:22:26;100844.75;;;11.66;78.49
75701;BME280;64321;48.796;44.740;2024-03-25T15:27:27;100834.00;;;11.58;78.65
75701;BME280;64321;48.796;44.740;2024-03-25T15:32:29;100833.44;;;11.43;77.72
75701;BME280;64321;48.796;44.740;2024-03-25T15:37:30;100837.06;;;11.42;78.02
75701;BME280;64321;48.796;44.740;2024-03-25T15:42:33;100846.94;;;11.29;77.75
75701;BME280;64321;48.796;44.740;2024-03-25T15:47:34;100854.91;;;11.18;79.63
75701;BME280;64321;48.796;44.740;2024-03-25T15:52:36;100850.69;;;11.16;79.19
75701;BME280;64321;48.796;44.740;2024-03-25T15:57:38;100857.69;;;11.05;80.21
75701;BME280;64321;48.796;44.740;2024-03-25T16:02:40;100848.56;;;11.09;80.95
75701;BME280;64321;48.796;44.740;2024-03-25T16:07:41;100844.97;;;10.99;81.25
75701;BME280;64321;48.796;44.740;2024-03-25T16:12:43;100848.31;;;11.01;82.69
75701;BME280;64321;48.796;44.740;2024-03-25T16:17:45;100839.66;;;10.99;82.69
75701;BME280;64321;48.796;44.740;2024-03-25T16:22:47;100845.06;;;10.98;82.09
75701;BME280;64321;48.796;44.740;2024-03-25T16:27:48;100838.00;;;10.98;80.52
75701;BME280;64321;48.796;44.740;2024-03-25T16:32:50;100836.31;;;10.97;79.96
75701;BME280;64321;48.796;44.740;2024-03-25T16:37:52;100837.88;;;11.00;78.88
75701;BME280;64321;48.796;44.740;2024-03-25T16:42:54;100838.00;;;10.98;79.00
75701;BME280;64321;48.796;44.740;2024-03-25T16:47:56;100834.19;;;10.91;77.81
75701;BME280;64321;48.796;44.740;2024-03-25T16:52:57;100828.88;;;10.80;77.74
75701;BME280;64321;48.796;44.740;2024-03-25T16:57:58;100824.81;;;10.65;78.33
75701;BME280;64321;48.796;44.740;2024-03-25T17:03:00;100817.88;;;10.53;79.56
75701;BME280;64321;48.796;44.740;2024-03-25T17:08:01;100811.84;;;10.39;80.46
75701;BME280;64321;48.796;44.740;2024-03-25T17:13:03;100807.41;;;10.29;80.97
75701;BME280;64321;48.796;44.740;2024-03-25T17:18:09;100805.22;;;10.23;81.15
75701;BME280;64321;48.796;44.740;2024-03-25T17:23:11;100812.25;;;10.11;81.88
75701;BME280;64321;48.796;44.740;2024-03-25T17:28:12;100806.50;;;10.06;83.57
75701;BME280;64321;48.796;44.740;2024-03-25T17:33:14;100803.38;;;10.01;83.45
75701;BME280;64321;48.796;44.740;2024-03-25T17:38:16;100796.50;;;9.87;85.15
75701;BME280;64321;48.796;44.740;2024-03-25T17:43:17;100795.19;;;9.82;86.13
75701;BME280;64321;48.796;44.740;2024-03-25T17:48:20;100793.00;;;9.75;88.58
75701;BME280;64321;48.796;44.740;2024-03-25T17:53:22;100796.09;;;9.69;88.46
75701;BME280;64321;48.796;44.740;2024-03-25T17:58:23;100797.53;;;9.62;89.87
75701;BME280;64321;48.796;44.740;2024-03-25T18:03:25;100792.03;;;9.65;89.01
75701;BME280;64321;48.796;44.740;2024-03-25T18:08:26;100782.66;;;9.61;90.23
75701;BME280;64321;48.796;44.740;2024-03-25T18:13:27;100788.59;;;9.52;90.15
75701;BME280;64321;48.796;44.740;2024-03-25T18:18:29;100781.06;;;9.48;90.95
75701;BME280;64321;48.796;44.740;2024-03-25T18:23:30;100777.81;;;9.44;90.35
75701;BME280;64321;48.796;44.740;2024-03-25T18:28:31;100759.53;;;9.30;90.16
75701;BME280;64321;48.796;44.740;2024-03-25T18:33:32;100766.03;;;9.37;89.38
75701;BME280;64321;48.796;44.740;2024-03-25T18:38:34;100753.19;;;9.32;89.75
75701;BME280;64321;48.796;44.740;2024-03-25T18:43:36;100762.06;;;9.31;90.48
75701;BME280;64321;48.796;44.740;2024-03-25T18:48:37;100751.56;;;9.19;93.83
75701;BME280;64321;48.796;44.740;2024-03-25T18:53:39;100762.31;;;9.16;94.45
75701;BME280;64321;48.796;44.740;2024-03-25T18:58:40;100749.25;;;9.14;95.98
75701;BME280;64321;48.796;44.740;2024-03-25T19:03:41;100745.31;;;9.09;97.49
75701;BME280;64321;48.796;44.740;2024-03-25T19:08:43;100752.91;;;9.00;98.87
75701;BME280;64321;48.796;44.740;2024-03-25T19:13:44;100753.81;;;8.88;99.63
75701;BME280;64321;48.796;44.740;2024-03-25T19:18:45;100746.34;;;8.82;99.87
75701;BME280;64321;48.796;44.740;2024-03-25T19:23:47;100743.34;;;8.76;100.00
75701;BME280;64321;48.796;44.740;2024-03-25T19:28:48;100737.44;;;8.72;100.00
75701;BME280;64321;48.796;44.740;2024-03-25T19:33:49;100727.28;;;8.55;100.00
75701;BME280;64321;48.796;44.740;2024-03-25T19:38:50;100730.88;;;8.54;100.00
75701;BME280;64321;48.796;44.740;2024-03-25T19:43:52;100726.56;;;8.53;100.00
75701;BME280;64321;48.796;44.740;2024-03-25T19:48:53;100718.34;;;8.45;100.00
75701;BME280;64321;48.796;44.740;2024-03-25T19:53:55;100713.31;;;8.42;100.00
75701;BME280;64321;48.796;44.740;2024-03-25T19:58:56;100721.53;;;8.37;100.00
75701;BME280;64321;48.796;44.740;2024-03-25T20:03:58;100713.66;;;8.37;100.00
75701;BME280;64321;48.796;44.740;2024-03-25T20:09:00;100715.81;;;8.30;100.00
75701;BME280;64321;48.796;44.740;2024-03-25T20:14:02;100699.03;;;8.20;100.00
75701;BME280;64321;48.796;44.740;2024-03-25T20:19:03;100701.66;;;8.20;100.00
75701;BME280;64321;48.796;44.740;2024-03-25T20:24:04;100703.34;;;8.21;100.00
75701;BME280;64321;48.796;44.740;2024-03-25T20:29:06;100695.66;;;8.18;100.00
75701;BME280;64321;48.796;44.740;2024-03-25T20:34:07;100686.81;;;8.19;100.00
75701;BME280;64321;48.796;44.740;2024-03-25T20:39:09;100691.19;;;8.31;100.00
75701;BME280;64321;48.796;44.740;2024-03-25T20:44:10;100682.56;;;8.42;100.00
75701;BME280;64321;48.796;44.740;2024-03-25T20:49:11;100679.34;;;8.39;100.00
75701;BME280;64321;48.796;44.740;2024-03-25T20:54:12;100668.81;;;8.39;100.00
75701;BME280;64321;48.796;44.740;2024-03-25T20:59:14;100664.13;;;8.42;100.00
75701;BME280;64321;48.796;44.740;2024-03-25T21:04:15;100655.19;;;8.45;100.00
75701;BME280;64321;48.796;44.740;2024-03-25T21:09:17;100647.63;;;8.27;100.00
75701;BME280;64321;48.796;44.740;2024-03-25T21:14:18;100645.59;;;8.44;100.00
75701;BME280;64321;48.796;44.740;2024-03-25T21:19:20;100634.38;;;8.42;100.00
75701;BME280;64321;48.796;44.740;2024-03-25T21:24:21;100628.06;;;8.31;100.00
75701;BME280;64321;48.796;44.740;2024-03-25T21:29:22;100618.69;;;8.27;100.00
75701;BME280;64321;48.796;44.740;2024-03-25T21:34:23;100626.53;;;8.16;100.00
75701;BME280;64321;48.796;44.740;2024-03-25T21:39:24;100615.09;;;8.05;100.00
75701;BME280;64321;48.796;44.740;2024-03-25T21:44:26;100611.53;;;7.93;100.00
75701;BME280;64321;48.796;44.740;2024-03-25T21:49:27;100598.31;;;7.82;100.00
75701;BME280;64321;48.796;44.740;2024-03-25T21:54:28;100607.19;;;7.68;100.00
75701;BME280;64321;48.796;44.740;2024-03-25T21:59:30;100603.81;;;7.53;100.00
75701;BME280;64321;48.796;44.740;2024-03-25T22:04:31;100605.81;;;7.37;100.00
75701;BME280;64321;48.796;44.740;2024-03-25T22:09:32;100590.78;;;7.14;100.00
75701;BME280;64321;48.796;44.740;2024-03-25T22:14:34;100598.22;;;6.94;100.00
75701;BME280;64321;48.796;44.740;2024-03-25T22:19:35;100579.59;;;6.85;100.00
75701;BME280;64321;48.796;44.740;2024-03-25T22:24:37;100573.06;;;6.65;100.00
75701;BME280;64321;48.796;44.740;2024-03-25T22:29:39;100564.69;;;6.73;100.00
75701;BME280;64321;48.796;44.740;2024-03-25T22:34:40;100568.16;;;6.46;100.00
75701;BME280;64321;48.796;44.740;2024-03-25T22:39:42;100561.25;;;6.45;100.00
75701;BME280;64321;48.796;44.740;2024-03-25T22:44:46;100569.28;;;6.30;100.00
75701;BME280;64321;48.796;44.740;2024-03-25T22:49:51;100560.34;;;6.19;100.00
75701;BME280;64321;48.796;44.740;2024-03-25T22:54:53;100557.75;;;6.32;100.00
75701;BME280;64321;48.796;44.740;2024-03-25T22:59:54;100550.53;;;6.36;100.00
75701;BME280;64321;48.796;44.740;2024-03-25T23:04:55;100541.72;;;6.10;100.00
75701;BME280;64321;48.796;44.740;2024-03-25T23:09:57;100543.09;;;6.15;100.00
75701;BME280;64321;48.796;44.740;2024-03-25T23:14:58;100545.41;;;6.07;100.00
75701;BME280;64321;48.796;44.740;2024-03-25T23:20:00;100547.66;;;5.99;100.00
75701;BME280;64321;48.796;44.740;2024-03-25T23:25:01;100533.13;;;6.08;100.00
75701;BME280;64321;48.796;44.740;2024-03-25T23:30:04;100534.75;;;5.82;100.00
75701;BME280;64321;48.796;44.740;2024-03-25T23:35:06;100533.53;;;6.02;100.00
75701;BME280;64321;48.796;44.740;2024-03-25T23:40:08;100515.66;;;6.21;100.00
75701;BME280;64321;48.796;44.740;2024-03-25T23:45:10;100515.13;;;5.89;100.00
75701;BME280;64321;48.796;44.740;2024-03-25T23:50:11;100509.72;;;6.05;100.00
75701;BME280;64321;48.796;44.740;2024-03-25T23:55:13;100499.56;;;5.86;100.00
